Time;durP1;ratioP1;P1;durP2;ratioP2;P2;SDS_P1;SDS_P2;PMS_P1;PMS_P2;Temp;Humidity;BMP_temperature;BMP_pressure;BME280_temperature;BME280_humidity;BME280_pressure;Samples;Min_cycle;Max_cycle;Signal;HPM_P1;HPM_P2
2023/04/20 00:01:15;;;;;;;0.22;0.22;;;5.70;99.90;;;;;;5036001;28;20486;-73
2023/04/20 00:03:44;;;;;;;0.30;0.30;;;5.60;99.90;;;;;;5035860;28;20534;-73
2023/04/20 00:06:09;;;;;;;0.20;0.20;;;5.50;99.90;;;;;;5017907;28;20036;-74
2023/04/20 00:08:35;;;;;;;0.20;0.20;;;5.30;99.90;;;;;;5034950;28;20026;-73
2023/04/20 00:11:00;;;;;;;0.25;0.25;;;5.40;99.90;;;;;;5035742;28;20071;-74
2023/04/20 00:13:26;;;;;;;0.20;0.20;;;5.50;99.90;;;;;;5035619;28;20029;-73
2023/04/20 00:15:52;;;;;;;0.20;0.20;;;5.50;99.90;;;;;;5035583;28;20075;-73
2023/04/20 00:18:17;;;;;;;0.30;0.30;;;5.60;99.90;;;;;;5035176;28;20025;-73
2023/04/20 00:20:43;;;;;;;0.28;0.28;;;5.70;99.90;;;;;;5034846;28;20032;-73
2023/04/20 00:23:08;;;;;;;0.20;0.20;;;5.80;99.90;;;;;;5035641;28;20041;-73
2023/04/20 00:25:34;;;;;;;0.30;0.30;;;5.70;99.90;;;;;;5035296;28;20059;-73
2023/04/20 00:27:59;;;;;;;0.20;0.20;;;5.80;99.90;;;;;;5035366;28;20034;-74
2023/04/20 00:30:25;;;;;;;0.20;0.20;;;5.90;99.90;;;;;;5034686;28;20765;-73
2023/04/20 00:32:50;;;;;;;0.30;0.30;;;5.90;99.90;;;;;;5035053;28;20483;-73
2023/04/20 00:35:16;;;;;;;0.20;0.20;;;5.80;99.90;;;;;;5035567;28;20049;-74
2023/04/20 00:37:41;;;;;;;0.20;0.20;;;5.70;99.90;;;;;;5034980;28;20029;-73
2023/04/20 00:40:08;;;;;;;0.30;0.30;;;5.70;99.90;;;;;;5027708;28;20030;-73
2023/04/20 00:42:34;;;;;;;0.20;0.20;;;5.60;99.90;;;;;;5014957;28;20105;-74
2023/04/20 00:44:59;;;;;;;0.17;0.17;;;5.60;99.90;;;;;;5015250;28;20098;-74
2023/04/20 00:47:28;;;;;;;0.20;0.20;;;5.70;99.90;;;;;;5015380;28;20030;-74
2023/04/20 00:49:53;;;;;;;0.30;0.30;;;5.60;99.90;;;;;;5015045;28;20034;-74
2023/04/20 00:52:20;;;;;;;0.25;0.25;;;5.70;99.90;;;;;;5032784;28;20473;-74
2023/04/20 00:54:46;;;;;;;0.20;0.20;;;5.70;99.90;;;;;;5016979;28;20036;-74
2023/04/20 00:57:13;;;;;;;0.20;0.20;;;5.60;99.90;;;;;;5023173;28;20057;-74
2023/04/20 00:59:39;;;;;;;0.30;0.30;;;5.50;99.90;;;;;;5014936;28;20075;-74
2023/04/20 01:02:05;;;;;;;0.10;0.10;;;5.50;99.90;;;;;;4996986;28;20022;-74
2023/04/20 01:04:31;;;;;;;0.20;0.20;;;5.40;99.90;;;;;;5014932;28;20498;-74
2023/04/20 01:06:56;;;;;;;0.20;0.20;;;5.30;99.90;;;;;;5015005;28;20026;-74
2023/04/20 01:09:22;;;;;;;0.20;0.20;;;5.10;99.90;;;;;;5011473;28;20400;-74
2023/04/20 01:11:47;;;;;;;0.20;0.20;;;5.10;99.90;;;;;;4997269;28;20030;-74
2023/04/20 01:14:13;;;;;;;0.40;0.40;;;5.10;99.90;;;;;;5014367;28;20037;-74
2023/04/20 01:16:38;;;;;;;0.20;0.20;;;5.20;99.90;;;;;;5016102;28;20483;-74
2023/04/20 01:19:04;;;;;;;0.20;0.20;;;5.30;99.90;;;;;;5013306;28;20022;-73
2023/04/20 01:21:30;;;;;;;0.30;0.30;;;5.10;99.90;;;;;;5014537;28;20048;-74
2023/04/20 01:23:55;;;;;;;0.28;0.28;;;5.20;99.90;;;;;;5014285;28;20025;-74
2023/04/20 01:26:22;;;;;;;0.20;0.20;;;5.20;99.90;;;;;;5034140;28;20442;-74
2023/04/20 01:28:48;;;;;;;0.20;0.20;;;5.30;99.90;;;;;;5030700;28;20045;-73
2023/04/20 01:31:16;;;;;;;0.22;0.22;;;5.30;99.90;;;;;;5024515;28;20487;-74
2023/04/20 01:33:41;;;;;;;0.25;0.25;;;5.30;99.90;;;;;;5034177;28;20056;-74
2023/04/20 01:36:08;;;;;;;0.20;0.20;;;5.40;99.90;;;;;;5033807;28;20022;-74
2023/04/20 01:38:34;;;;;;;0.30;0.30;;;5.40;99.90;;;;;;5033693;28;20021;-74
2023/04/20 01:41:03;;;;;;;0.30;0.30;;;5.50;99.90;;;;;;5034208;28;20021;-74
2023/04/20 01:43:29;;;;;;;0.25;0.25;;;5.50;99.90;;;;;;5016069;28;20127;-74
2023/04/20 01:45:55;;;;;;;0.20;0.20;;;5.50;99.90;;;;;;5034134;28;20479;-74
2023/04/20 01:48:20;;;;;;;0.28;0.28;;;5.50;99.90;;;;;;5033844;28;20101;-74
2023/04/20 01:50:50;;;;;;;0.20;0.20;;;5.50;99.90;;;;;;5079162;23;20026;-74
2023/04/20 01:53:15;;;;;;;0.20;0.20;;;5.60;99.90;;;;;;5013025;28;20407;-74
2023/04/20 01:55:41;;;;;;;0.20;0.20;;;5.70;99.90;;;;;;5013883;28;20025;-74
2023/04/20 01:58:07;;;;;;;0.20;0.20;;;5.70;99.90;;;;;;5014093;28;20488;-74
2023/04/20 02:00:32;;;;;;;0.20;0.20;;;5.70;99.90;;;;;;4996318;28;20018;-74
2023/04/20 02:02:58;;;;;;;0.10;0.10;;;5.70;99.90;;;;;;5051807;28;20021;-74
2023/04/20 02:05:23;;;;;;;0.20;0.20;;;5.50;99.90;;;;;;5053551;28;20036;-74
2023/04/20 02:07:50;;;;;;;0.20;0.20;;;5.50;99.90;;;;;;5053402;28;20021;-74
2023/04/20 02:10:15;;;;;;;0.20;0.20;;;5.40;99.90;;;;;;5035838;28;20021;-74
2023/04/20 02:12:41;;;;;;;0.20;0.20;;;5.40;99.90;;;;;;5005313;23;20050;-74
2023/04/20 02:15:09;;;;;;;0.30;0.30;;;5.30;99.90;;;;;;4993786;28;20097;-74
2023/04/20 02:17:40;;;;;;;0.20;0.20;;;5.30;99.90;;;;;;4991318;28;20085;-74
2023/04/20 02:20:09;;;;;;;0.30;0.30;;;5.30;99.90;;;;;;4994608;28;20049;-74
2023/04/20 02:22:35;;;;;;;0.20;0.20;;;5.30;99.90;;;;;;5001911;28;20030;-74
2023/04/20 02:25:01;;;;;;;0.30;0.30;;;5.30;99.90;;;;;;4996458;28;20014;-74
2023/04/20 02:27:27;;;;;;;0.20;0.20;;;5.20;99.90;;;;;;5013591;28;20037;-74
2023/04/20 02:29:52;;;;;;;0.22;0.22;;;5.10;99.90;;;;;;5011638;28;20030;-74
2023/04/20 02:32:18;;;;;;;0.20;0.20;;;5.10;99.90;;;;;;5013412;28;20040;-74
2023/04/20 02:34:44;;;;;;;0.30;0.30;;;5.00;99.90;;;;;;5013183;28;20026;-74
2023/04/20 02:37:09;;;;;;;0.28;0.28;;;5.00;99.90;;;;;;5013167;28;20053;-75
2023/04/20 02:39:35;;;;;;;0.30;0.30;;;5.00;99.90;;;;;;5013531;28;20394;-74
2023/04/20 02:42:00;;;;;;;0.20;0.20;;;4.80;99.90;;;;;;5012157;28;20481;-74
2023/04/20 02:44:26;;;;;;;0.38;0.38;;;4.80;99.90;;;;;;5012712;28;20018;-74
2023/04/20 02:46:51;;;;;;;0.20;0.20;;;4.80;99.90;;;;;;5013451;28;20037;-74
2023/04/20 02:49:17;;;;;;;0.20;0.20;;;4.80;99.90;;;;;;5013190;28;20509;-74
2023/04/20 02:51:42;;;;;;;0.20;0.20;;;4.90;99.90;;;;;;5006303;28;20030;-74
2023/04/20 02:54:08;;;;;;;0.30;0.30;;;5.10;99.90;;;;;;4992056;28;20032;-74
2023/04/20 02:56:33;;;;;;;0.22;0.22;;;5.20;99.90;;;;;;4995526;28;20034;-74
2023/04/20 02:58:59;;;;;;;0.20;0.20;;;5.20;99.90;;;;;;5012896;28;20080;-74
2023/04/20 03:01:27;;;;;;;0.20;0.20;;;5.10;99.90;;;;;;5012919;28;20022;-74
2023/04/20 03:03:52;;;;;;;0.30;0.30;;;5.20;99.90;;;;;;5008021;28;20029;-74
2023/04/20 03:06:18;;;;;;;0.20;0.20;;;5.20;99.90;;;;;;4993179;28;20030;-74
2023/04/20 03:08:43;;;;;;;0.20;0.20;;;5.10;99.90;;;;;;5003117;28;20022;-75
2023/04/20 03:11:09;;;;;;;0.30;0.30;;;5.20;99.90;;;;;;5012542;28;20046;-75
2023/04/20 03:13:35;;;;;;;0.20;0.20;;;5.20;99.90;;;;;;5012895;28;20068;-74
2023/04/20 03:16:00;;;;;;;0.30;0.30;;;5.20;99.90;;;;;;5012887;28;20100;-75
2023/04/20 03:18:26;;;;;;;0.30;0.30;;;5.10;99.90;;;;;;5012191;28;20144;-74
2023/04/20 03:20:51;;;;;;;0.30;0.30;;;5.10;99.90;;;;;;5012812;28;20060;-74
2023/04/20 03:23:20;;;;;;;0.20;0.20;;;5.10;99.90;;;;;;5008925;28;20499;-74
2023/04/20 03:25:46;;;;;;;0.28;0.28;;;5.10;99.90;;;;;;5005593;28;20026;-74
2023/04/20 03:28:11;;;;;;;0.20;0.20;;;5.00;99.90;;;;;;5003390;28;20027;-74
2023/04/20 03:30:37;;;;;;;0.20;0.20;;;5.10;99.90;;;;;;5005670;28;20045;-74
2023/04/20 03:33:02;;;;;;;0.20;0.20;;;5.20;99.90;;;;;;5003603;28;20404;-74
2023/04/20 03:35:28;;;;;;;0.30;0.30;;;5.00;99.90;;;;;;4995677;28;20089;-74
2023/04/20 03:37:53;;;;;;;0.20;0.20;;;5.00;99.90;;;;;;4993067;28;20026;-75
2023/04/20 03:40:19;;;;;;;0.30;0.30;;;5.00;99.90;;;;;;4995254;28;20392;-74
2023/04/20 03:42:45;;;;;;;0.30;0.30;;;5.00;99.90;;;;;;4992911;28;20019;-74
2023/04/20 03:45:11;;;;;;;0.20;0.20;;;5.00;99.90;;;;;;5000083;28;20034;-74
2023/04/20 03:47:36;;;;;;;0.30;0.30;;;5.00;99.90;;;;;;5012803;28;20022;-74
2023/04/20 03:50:03;;;;;;;0.30;0.30;;;4.90;99.90;;;;;;5007533;28;20034;-74
2023/04/20 03:52:28;;;;;;;0.20;0.20;;;4.90;99.90;;;;;;5014016;28;20022;-74
2023/04/20 03:54:54;;;;;;;0.20;0.20;;;4.90;99.90;;;;;;5016249;28;20048;-73
2023/04/20 03:57:19;;;;;;;0.20;0.20;;;4.80;99.90;;;;;;5016384;28;20365;-74
2023/04/20 03:59:45;;;;;;;0.20;0.20;;;5.00;99.90;;;;;;5015796;28;20026;-74
2023/04/20 04:02:12;;;;;;;0.20;0.20;;;4.90;99.90;;;;;;5009251;28;20027;-74
2023/04/20 04:04:38;;;;;;;0.20;0.20;;;4.90;99.90;;;;;;4996464;28;20105;-74
2023/04/20 04:07:04;;;;;;;0.20;0.20;;;4.90;99.90;;;;;;4999059;28;20488;-74
2023/04/20 04:09:29;;;;;;;0.30;0.30;;;4.80;99.90;;;;;;5011571;28;20038;-75
2023/04/20 04:11:56;;;;;;;0.30;0.30;;;4.80;99.90;;;;;;4996073;28;20034;-74
2023/04/20 04:14:21;;;;;;;0.22;0.22;;;4.90;99.90;;;;;;4996391;28;20392;-74
2023/04/20 04:16:47;;;;;;;0.20;0.20;;;4.90;99.90;;;;;;4996379;28;20034;-74
2023/04/20 04:19:15;;;;;;;0.20;0.20;;;4.90;99.90;;;;;;4996028;28;20034;-74
2023/04/20 04:21:40;;;;;;;0.22;0.22;;;4.90;99.90;;;;;;5009191;28;20076;-75
2023/04/20 04:24:06;;;;;;;0.20;0.20;;;4.90;99.90;;;;;;5011729;28;20026;-74
2023/04/20 04:26:32;;;;;;;0.20;0.20;;;4.90;99.90;;;;;;5015604;28;20026;-74
2023/04/20 04:28:58;;;;;;;0.20;0.20;;;4.90;99.90;;;;;;5015161;28;20030;-74
2023/04/20 04:31:24;;;;;;;0.30;0.30;;;4.90;99.90;;;;;;5014098;28;20025;-74
2023/04/20 04:33:50;;;;;;;0.30;0.30;;;4.90;99.90;;;;;;5013788;28;20117;-74
2023/04/20 04:36:16;;;;;;;0.30;0.30;;;4.90;99.90;;;;;;5015873;28;20029;-75
2023/04/20 04:38:43;;;;;;;0.17;0.17;;;4.90;99.90;;;;;;5015421;28;20022;-73
2023/04/20 04:41:11;;;;;;;0.20;0.20;;;5.00;99.90;;;;;;5015484;28;20080;-74
2023/04/20 04:43:37;;;;;;;0.30;0.30;;;5.00;99.90;;;;;;5014725;28;20018;-75
2023/04/20 04:46:10;;;;;;;0.20;0.20;;;5.10;99.90;;;;;;5014473;28;20022;-74
2023/04/20 04:48:39;;;;;;;0.30;0.30;;;5.10;99.90;;;;;;5015054;28;20026;-75
2023/04/20 04:51:05;;;;;;;0.30;0.30;;;5.10;99.90;;;;;;5014822;28;20034;-74
2023/04/20 04:53:31;;;;;;;0.20;0.20;;;5.10;99.90;;;;;;5013920;28;20487;-74
2023/04/20 04:55:56;;;;;;;0.20;0.20;;;5.20;99.90;;;;;;5015267;28;20108;-74
2023/04/20 04:58:22;;;;;;;0.20;0.20;;;5.20;99.90;;;;;;5015153;28;20077;-75
2023/04/20 05:00:47;;;;;;;0.20;0.20;;;5.20;99.90;;;;;;5014831;28;20037;-74
2023/04/20 05:03:13;;;;;;;0.40;0.40;;;5.30;99.90;;;;;;5014136;28;20609;-74
2023/04/20 05:05:38;;;;;;;0.20;0.20;;;5.40;99.90;;;;;;5014738;28;20022;-74
2023/04/20 05:08:04;;;;;;;0.20;0.20;;;5.40;99.90;;;;;;5014819;28;20030;-74
2023/04/20 05:10:30;;;;;;;0.20;0.20;;;5.40;99.90;;;;;;5013535;28;20515;-74
2023/04/20 05:12:57;;;;;;;0.20;0.20;;;5.50;99.90;;;;;;5013579;28;20033;-74
2023/04/20 05:15:23;;;;;;;0.20;0.20;;;5.50;99.90;;;;;;5013521;28;20037;-73
2023/04/20 05:17:48;;;;;;;0.25;0.25;;;5.60;99.90;;;;;;5013978;28;20034;-74
2023/04/20 05:20:14;;;;;;;0.30;0.30;;;5.60;99.90;;;;;;5014811;28;20062;-74
2023/04/20 05:22:40;;;;;;;0.22;0.22;;;5.70;99.90;;;;;;5014052;28;20072;-74
2023/04/20 05:25:06;;;;;;;0.22;0.22;;;5.70;99.90;;;;;;4995262;28;20019;-74
2023/04/20 05:27:34;;;;;;;0.30;0.30;;;5.70;99.90;;;;;;4994648;28;20534;-74
2023/04/20 05:30:00;;;;;;;0.20;0.20;;;5.70;99.90;;;;;;4994984;28;20029;-75
2023/04/20 05:32:25;;;;;;;0.20;0.20;;;5.70;99.90;;;;;;5012881;28;20029;-74
2023/04/20 05:34:51;;;;;;;0.22;0.22;;;5.80;99.90;;;;;;5014139;28;20030;-74
2023/04/20 05:37:17;;;;;;;0.20;0.20;;;5.90;99.90;;;;;;5013957;28;20033;-74
2023/04/20 05:39:42;;;;;;;0.30;0.30;;;6.00;99.90;;;;;;5014228;28;20026;-74
2023/04/20 05:42:08;;;;;;;0.20;0.20;;;6.20;99.90;;;;;;5014064;28;20037;-74
2023/04/20 05:44:35;;;;;;;0.15;0.15;;;6.30;99.90;;;;;;5012491;28;20026;-73
2023/04/20 05:47:05;;;;;;;0.20;0.20;;;6.40;99.90;;;;;;5012820;28;20044;-74
2023/04/20 05:49:31;;;;;;;0.25;0.25;;;6.50;99.90;;;;;;5014677;28;20028;-74
2023/04/20 05:51:57;;;;;;;0.20;0.20;;;6.50;99.90;;;;;;5013871;28;20033;-73
2023/04/20 05:54:22;;;;;;;0.30;0.30;;;6.60;99.90;;;;;;5014294;28;20034;-74
2023/04/20 05:56:48;;;;;;;0.30;0.30;;;6.70;99.90;;;;;;5013461;28;20113;-74
2023/04/20 05:59:15;;;;;;;0.20;0.20;;;6.80;99.90;;;;;;5014250;28;20022;-74
2023/04/20 06:01:40;;;;;;;0.28;0.28;;;6.80;99.90;;;;;;5013861;28;20017;-75
2023/04/20 06:04:06;;;;;;;0.30;0.30;;;6.90;99.90;;;;;;5014735;28;20029;-74
2023/04/20 06:06:31;;;;;;;0.20;0.20;;;6.80;99.90;;;;;;5013690;28;20472;-73
2023/04/20 06:08:58;;;;;;;0.20;0.20;;;6.90;99.90;;;;;;5012801;28;20064;-72
2023/04/20 06:11:24;;;;;;;0.20;0.20;;;7.00;99.90;;;;;;5002837;28;20026;-73
2023/04/20 06:13:50;;;;;;;0.20;0.20;;;7.30;99.90;;;;;;5013591;28;20033;-73
2023/04/20 06:16:15;;;;;;;0.30;0.30;;;7.60;99.90;;;;;;5006923;28;20039;-73
2023/04/20 06:18:41;;;;;;;0.30;0.30;;;7.70;99.90;;;;;;4994282;28;20027;-73
2023/04/20 06:21:09;;;;;;;0.30;0.30;;;7.80;99.90;;;;;;5011342;28;20407;-73
2023/04/20 06:23:36;;;;;;;0.30;0.30;;;8.00;99.90;;;;;;5004266;28;20480;-73
2023/04/20 06:26:02;;;;;;;0.10;0.10;;;8.00;99.90;;;;;;4992860;28;20101;-73
2023/04/20 06:28:28;;;;;;;0.20;0.20;;;8.00;99.90;;;;;;4993269;28;20024;-74
2023/04/20 06:30:53;;;;;;;0.15;0.15;;;8.10;99.90;;;;;;4993794;28;20029;-73
2023/04/20 06:33:19;;;;;;;0.20;0.20;;;8.10;99.90;;;;;;4993774;28;20023;-74
2023/04/20 06:35:44;;;;;;;0.20;0.20;;;8.10;99.90;;;;;;5010695;28;20018;-74
2023/04/20 06:38:10;;;;;;;0.20;0.20;;;8.20;99.90;;;;;;5012640;28;20399;-74
2023/04/20 06:40:36;;;;;;;0.20;0.20;;;8.30;99.90;;;;;;5013427;28;20470;-74
2023/04/20 06:43:01;;;;;;;0.17;0.17;;;8.30;99.90;;;;;;5013166;28;20391;-74
2023/04/20 06:45:27;;;;;;;0.20;0.20;;;8.50;99.90;;;;;;5010474;28;20017;-74
2023/04/20 06:47:52;;;;;;;0.20;0.20;;;8.50;99.90;;;;;;5012696;28;20033;-73
2023/04/20 06:50:18;;;;;;;0.13;0.13;;;8.60;99.90;;;;;;5013182;28;20442;-74
2023/04/20 06:52:44;;;;;;;0.25;0.25;;;8.70;99.90;;;;;;5013341;28;20022;-74
2023/04/20 06:55:10;;;;;;;0.10;0.10;;;8.80;99.90;;;;;;5013023;28;20033;-74
2023/04/20 06:57:39;;;;;;;0.20;0.20;;;8.80;99.90;;;;;;5012507;28;20101;-74
2023/04/20 07:00:08;;;;;;;0.17;0.17;;;8.80;99.90;;;;;;5013512;28;20383;-74
2023/04/20 07:02:45;;;;;;;0.25;0.25;;;8.80;99.90;;;;;;5013319;28;20021;-74
2023/04/20 07:05:10;;;;;;;0.20;0.20;;;9.00;99.90;;;;;;5012165;28;20018;-74
2023/04/20 07:07:36;;;;;;;0.20;0.20;;;9.10;99.90;;;;;;5013276;28;20028;-74
2023/04/20 07:10:02;;;;;;;0.17;0.17;;;9.00;99.90;;;;;;5012787;28;20033;-74
2023/04/20 07:12:28;;;;;;;0.20;0.20;;;9.00;99.90;;;;;;5013118;28;20042;-74
2023/04/20 07:14:54;;;;;;;0.20;0.20;;;9.40;99.90;;;;;;5013363;28;20033;-74
2023/04/20 07:17:19;;;;;;;0.20;0.20;;;9.50;99.90;;;;;;5012035;28;20026;-74
2023/04/20 07:19:45;;;;;;;0.10;0.10;;;9.50;99.90;;;;;;5011514;28;20018;-74
2023/04/20 07:22:14;;;;;;;0.20;0.20;;;9.50;99.90;;;;;;5013452;28;20050;-74
2023/04/20 07:24:39;;;;;;;0.20;0.20;;;9.40;99.90;;;;;;5013075;28;20022;-74
2023/04/20 07:27:07;;;;;;;0.20;0.20;;;9.40;99.90;;;;;;5014507;28;20125;-73
2023/04/20 07:29:32;;;;;;;0.20;0.20;;;9.40;99.90;;;;;;5016032;28;20392;-74
2023/04/20 07:31:58;;;;;;;0.30;0.30;;;9.60;99.90;;;;;;5015707;28;20026;-74
2023/04/20 07:34:23;;;;;;;0.30;0.30;;;9.80;99.90;;;;;;5015440;28;20029;-74
2023/04/20 07:36:49;;;;;;;0.20;0.20;;;9.70;99.90;;;;;;5016902;28;20025;-74
2023/04/20 07:39:14;;;;;;;0.20;0.20;;;9.50;99.90;;;;;;5017025;28;20484;-74
2023/04/20 07:41:40;;;;;;;0.20;0.20;;;9.30;99.90;;;;;;5015367;28;20058;-74
2023/04/20 07:44:07;;;;;;;0.20;0.20;;;9.10;99.90;;;;;;5016531;28;20033;-74
2023/04/20 07:46:33;;;;;;;0.30;0.30;;;9.10;99.90;;;;;;5016733;28;20052;-74
2023/04/20 07:48:59;;;;;;;0.20;0.20;;;9.10;99.90;;;;;;5016931;28;20142;-74
2023/04/20 07:51:25;;;;;;;0.30;0.30;;;9.20;99.90;;;;;;5016626;28;20411;-74
2023/04/20 07:53:50;;;;;;;0.20;0.20;;;9.30;99.90;;;;;;5016955;28;20024;-74
2023/04/20 07:56:16;;;;;;;0.22;0.22;;;9.40;99.90;;;;;;5015955;28;20033;-74
2023/04/20 07:58:41;;;;;;;0.20;0.20;;;9.50;99.90;;;;;;5016484;28;20423;-74
2023/04/20 08:01:07;;;;;;;0.20;0.20;;;9.60;99.90;;;;;;5016285;28;20026;-74
2023/04/20 08:03:34;;;;;;;0.20;0.20;;;9.90;99.90;;;;;;5016634;28;20052;-74
2023/04/20 08:06:02;;;;;;;0.20;0.20;;;10.00;99.90;;;;;;5015962;28;20037;-74
2023/04/20 08:08:27;;;;;;;0.28;0.28;;;10.10;99.90;;;;;;5016571;28;20088;-74
2023/04/20 08:10:57;;;;;;;0.20;0.20;;;9.60;99.90;;;;;;5015980;28;20026;-74
2023/04/20 08:13:22;;;;;;;0.20;0.20;;;9.50;99.90;;;;;;5016578;28;20049;-74
2023/04/20 08:15:48;;;;;;;0.20;0.20;;;9.50;99.90;;;;;;5016389;28;20530;-74
2023/04/20 08:18:15;;;;;;;0.20;0.20;;;9.50;99.90;;;;;;5015616;28;20506;-74
2023/04/20 08:20:41;;;;;;;0.20;0.20;;;9.50;99.90;;;;;;5016037;28;20029;-74
2023/04/20 08:23:07;;;;;;;0.30;0.30;;;9.70;99.90;;;;;;5014789;28;20022;-74
2023/04/20 08:25:32;;;;;;;0.20;0.20;;;9.80;99.90;;;;;;5016007;28;20383;-74
2023/04/20 08:27:58;;;;;;;0.20;0.20;;;9.90;99.90;;;;;;5015951;28;20034;-74
2023/04/20 08:30:23;;;;;;;0.30;0.30;;;10.00;99.90;;;;;;5015386;28;20484;-74
2023/04/20 08:32:49;;;;;;;0.20;0.20;;;10.50;99.90;;;;;;5005622;28;20042;-74
2023/04/20 08:35:14;;;;;;;0.30;0.30;;;10.90;99.90;;;;;;5007586;28;20029;-74
2023/04/20 08:37:41;;;;;;;0.20;0.20;;;11.20;99.90;;;;;;5007003;28;20030;-74
2023/04/20 08:40:09;;;;;;;0.20;0.20;;;11.40;99.90;;;;;;5009899;28;20068;-74
2023/04/20 08:42:35;;;;;;;0.20;0.20;;;11.50;99.90;;;;;;5015182;28;20498;-74
2023/04/20 08:45:01;;;;;;;0.10;0.10;;;11.60;99.90;;;;;;5013837;28;20030;-74
2023/04/20 08:47:28;;;;;;;0.20;0.20;;;11.30;99.90;;;;;;5015369;28;20022;-75
2023/04/20 08:49:54;;;;;;;0.17;0.17;;;10.90;99.90;;;;;;5014267;28;20037;-74
2023/04/20 08:52:19;;;;;;;0.20;0.20;;;10.70;99.90;;;;;;5015193;28;20053;-74
2023/04/20 08:54:45;;;;;;;0.20;0.20;;;10.70;99.90;;;;;;5014222;28;20026;-74
2023/04/20 08:57:11;;;;;;;0.20;0.20;;;10.70;99.90;;;;;;5014536;28;20026;-74
2023/04/20 08:59:37;;;;;;;0.20;0.20;;;10.70;99.90;;;;;;5014911;28;20026;-74
2023/04/20 09:02:13;;;;;;;0.20;0.20;;;10.60;99.90;;;;;;5015054;28;20026;-74
2023/04/20 09:04:39;;;;;;;0.20;0.20;;;10.50;99.90;;;;;;5013839;28;20022;-74
2023/04/20 09:07:06;;;;;;;0.20;0.20;;;10.30;99.90;;;;;;5013932;28;20026;-74
2023/04/20 09:09:32;;;;;;;0.20;0.20;;;10.10;99.90;;;;;;5014672;28;20029;-74
2023/04/20 09:12:09;;;;;;;0.20;0.20;;;9.90;99.90;;;;;;5014788;28;20029;-74
2023/04/20 09:14:45;;;;;;;0.20;0.20;;;10.00;99.90;;;;;;5014670;28;20026;-74
2023/04/20 09:17:13;;;;;;;0.20;0.20;;;10.10;99.90;;;;;;5013665;28;20048;-74
2023/04/20 09:19:39;;;;;;;0.20;0.20;;;10.20;99.90;;;;;;5013165;28;20076;-74
2023/04/20 09:22:05;;;;;;;0.20;0.20;;;10.30;99.90;;;;;;5012608;28;20033;-74
2023/04/20 09:24:33;;;;;;;0.20;0.20;;;10.20;99.90;;;;;;5007547;28;20022;-74
2023/04/20 09:27:02;;;;;;;0.20;0.20;;;10.40;99.90;;;;;;4995187;28;20045;-74
2023/04/20 09:29:29;;;;;;;0.20;0.20;;;10.30;99.90;;;;;;4995193;28;20495;-75
2023/04/20 09:31:55;;;;;;;0.30;0.30;;;10.30;99.90;;;;;;4994950;28;20027;-74
2023/04/20 09:34:22;;;;;;;0.22;0.22;;;10.40;99.90;;;;;;4995095;28;20498;-74
2023/04/20 09:36:50;;;;;;;0.20;0.20;;;10.60;99.90;;;;;;5002608;28;20403;-74
2023/04/20 09:39:18;;;;;;;0.20;0.20;;;10.90;99.90;;;;;;4995030;28;20027;-74
2023/04/20 09:41:45;;;;;;;0.22;0.22;;;11.30;99.90;;;;;;4994290;28;20484;-74
2023/04/20 09:44:11;;;;;;;0.20;0.20;;;11.50;99.90;;;;;;4994701;28;20037;-74
2023/04/20 09:46:39;;;;;;;0.20;0.20;;;11.70;99.90;;;;;;4994007;28;20126;-74
2023/04/20 09:49:07;;;;;;;0.20;0.20;;;11.70;99.90;;;;;;5012322;28;20041;-74
2023/04/20 09:51:43;;;;;;;0.10;0.10;;;11.60;99.90;;;;;;5012501;28;20118;-75
2023/04/20 09:54:10;;;;;;;0.20;0.20;;;11.40;99.90;;;;;;5014276;28;20507;-74
2023/04/20 09:56:35;;;;;;;0.10;0.10;;;11.30;99.90;;;;;;5013424;28;20061;-74
2023/04/20 09:59:02;;;;;;;0.30;0.30;;;11.30;99.90;;;;;;5014236;28;20479;-74
2023/04/20 10:01:34;;;;;;;0.20;0.20;;;11.40;99.90;;;;;;5013857;28;20029;-74
2023/04/20 10:04:02;;;;;;;0.20;0.20;;;11.50;99.90;;;;;;5013705;28;20032;-74
2023/04/20 10:06:29;;;;;;;0.15;0.15;;;11.70;99.90;;;;;;5014134;28;20026;-74
2023/04/20 10:08:56;;;;;;;0.20;0.20;;;11.70;99.90;;;;;;5013606;28;20022;-74
2023/04/20 10:11:26;;;;;;;0.20;0.20;;;11.70;99.90;;;;;;5013636;28;20062;-74
2023/04/20 10:13:52;;;;;;;0.20;0.20;;;11.80;99.90;;;;;;5013582;28;20022;-74
2023/04/20 10:16:18;;;;;;;0.10;0.10;;;12.10;99.90;;;;;;5013705;28;20076;-74
2023/04/20 10:19:02;;;;;;;0.20;0.20;;;12.60;99.90;;;;;;5013502;28;20109;-74
2023/04/20 10:21:32;;;;;;;0.20;0.20;;;13.20;99.90;;;;;;5012232;28;20049;-73
2023/04/20 10:24:02;;;;;;;0.20;0.20;;;13.50;99.90;;;;;;5013968;28;20034;-74
2023/04/20 10:26:42;;;;;;;0.20;0.20;;;13.70;99.90;;;;;;5012530;28;20361;-74
2023/04/20 10:29:08;;;;;;;0.20;0.20;;;14.30;99.90;;;;;;5013450;28;20018;-74
2023/04/20 10:31:39;;;;;;;0.20;0.20;;;14.50;99.90;;;;;;5012360;28;20041;-74
2023/04/20 10:34:06;;;;;;;0.17;0.17;;;14.20;99.90;;;;;;5013541;28;20475;-74
2023/04/20 10:36:35;;;;;;;0.20;0.20;;;14.10;99.90;;;;;;5012968;28;20095;-74
2023/04/20 10:39:15;;;;;;;0.17;0.17;;;13.80;99.90;;;;;;5013235;28;20062;-74
2023/04/20 10:42:02;;;;;;;0.20;0.20;;;13.50;99.90;;;;;;5013238;28;20026;-74
2023/04/20 10:44:29;;;;;;;0.20;0.20;;;13.50;99.90;;;;;;5013442;28;20109;-74
2023/04/20 10:46:55;;;;;;;0.10;0.10;;;13.50;99.90;;;;;;5012827;28;20028;-74
2023/04/20 10:49:33;;;;;;;0.20;0.20;;;13.40;99.90;;;;;;5013479;28;20021;-74
2023/04/20 10:52:01;;;;;;;0.10;0.10;;;13.20;99.90;;;;;;5011658;28;20036;-74
2023/04/20 10:54:39;;;;;;;0.10;0.10;;;13.10;99.90;;;;;;5012060;28;20057;-74
2023/04/20 10:57:05;;;;;;;0.20;0.20;;;13.20;99.90;;;;;;4992109;28;20057;-74
2023/04/20 10:59:31;;;;;;;0.20;0.20;;;13.10;99.90;;;;;;5000822;28;20383;-74
2023/04/20 11:02:00;;;;;;;0.20;0.20;;;13.10;99.90;;;;;;5007848;28;20491;-74
2023/04/20 11:04:30;;;;;;;0.20;0.20;;;13.60;99.90;;;;;;4992028;28;20080;-74
2023/04/20 11:07:07;;;;;;;0.10;0.10;;;14.10;99.90;;;;;;4992321;28;20065;-74
2023/04/20 11:09:34;;;;;;;0.20;0.20;;;14.50;99.90;;;;;;4999891;28;20100;-74
2023/04/20 11:12:05;;;;;;;0.20;0.20;;;14.80;99.90;;;;;;5018510;23;20116;-75
2023/04/20 11:14:32;;;;;;;0.20;0.20;;;14.90;99.90;;;;;;5012733;28;20022;-74
2023/04/20 11:16:58;;;;;;;0.20;0.20;;;15.10;99.90;;;;;;5012809;28;20030;-74
2023/04/20 11:19:29;;;;;;;0.20;0.20;;;15.10;99.90;;;;;;5013111;28;20117;-74
2023/04/20 11:21:55;;;;;;;0.20;0.20;;;15.50;99.90;;;;;;5023529;28;20542;-74
2023/04/20 11:24:36;;;;;;;0.20;0.20;;;15.60;99.90;;;;;;5032385;28;20041;-75
2023/04/20 11:27:03;;;;;;;0.20;0.20;;;15.70;99.90;;;;;;5032581;28;20108;-75
2023/04/20 11:29:37;;;;;;;0.10;0.10;;;15.70;99.90;;;;;;5032810;28;20037;-75
2023/04/20 11:32:05;;;;;;;0.20;0.20;;;15.70;99.90;;;;;;5030984;28;20033;-75
2023/04/20 11:34:32;;;;;;;0.10;0.10;;;16.00;99.90;;;;;;5032067;28;20030;-75
2023/04/20 11:37:03;;;;;;;0.10;0.10;;;16.30;99.90;;;;;;5032547;28;20030;-75
2023/04/20 11:39:29;;;;;;;0.20;0.20;;;16.50;99.90;;;;;;5033096;28;20034;-75
2023/04/20 11:41:56;;;;;;;0.10;0.10;;;16.10;99.90;;;;;;5032277;28;20029;-75
2023/04/20 11:44:23;;;;;;;0.20;0.20;;;16.20;99.90;;;;;;5031363;28;20029;-74
2023/04/20 11:46:49;;;;;;;0.20;0.20;;;16.60;99.90;;;;;;5031819;28;20108;-74
2023/04/20 11:49:16;;;;;;;0.10;0.10;;;17.20;99.90;;;;;;5032430;28;20544;-74
2023/04/20 11:51:42;;;;;;;0.20;0.20;;;17.50;99.90;;;;;;5032443;28;20060;-74
2023/04/20 11:54:08;;;;;;;0.10;0.10;;;17.30;99.90;;;;;;5025735;28;20141;-74
2023/04/20 11:56:33;;;;;;;0.10;0.10;;;17.20;99.90;;;;;;5012056;28;20498;-74
2023/04/20 11:58:59;;;;;;;0.20;0.20;;;16.90;99.90;;;;;;5014444;28;20022;-74
2023/04/20 12:01:25;;;;;;;0.20;0.20;;;16.90;99.90;;;;;;5015264;28;20439;-74
2023/04/20 12:03:50;;;;;;;0.10;0.10;;;17.20;99.90;;;;;;5011643;28;20050;-74
2023/04/20 12:06:16;;;;;;;0.20;0.20;;;17.80;99.90;;;;;;5012047;28;20447;-75
2023/04/20 12:08:42;;;;;;;0.20;0.20;;;18.20;99.90;;;;;;5012523;28;20080;-74
2023/04/20 12:11:08;;;;;;;0.10;0.10;;;18.50;99.90;;;;;;5018508;28;20063;-74
2023/04/20 12:13:33;;;;;;;0.10;0.10;;;18.60;99.90;;;;;;5032368;28;20049;-74
2023/04/20 12:15:59;;;;;;;0.10;0.10;;;18.60;99.90;;;;;;5034110;28;20475;-75
2023/04/20 12:18:24;;;;;;;0.10;0.10;;;18.50;99.90;;;;;;5036164;28;20029;-75
2023/04/20 12:20:50;;;;;;;0.10;0.10;;;18.80;99.90;;;;;;5035847;28;20688;-74
2023/04/20 12:23:15;;;;;;;0.20;0.20;;;19.10;99.90;;;;;;5035715;28;20372;-75
2023/04/20 12:25:42;;;;;;;0.10;0.10;;;19.50;99.90;;;;;;5034956;28;20027;-74
2023/04/20 12:28:07;;;;;;;0.10;0.10;;;19.90;99.90;;;;;;5034743;28;20430;-75
2023/04/20 12:30:34;;;;;;;0.10;0.10;;;20.00;99.90;;;;;;5035670;28;20028;-75
2023/04/20 12:33:02;;;;;;;0.10;0.10;;;20.30;99.90;;;;;;5034363;28;20029;-75
2023/04/20 12:35:30;;;;;;;0.10;0.10;;;20.00;99.90;;;;;;5033772;28;20028;-74
2023/04/20 12:37:56;;;;;;;0.10;0.10;;;20.30;99.90;;;;;;5035310;28;20025;-74
2023/04/20 12:40:21;;;;;;;0.10;0.10;;;20.40;99.90;;;;;;5035555;28;20072;-74
2023/04/20 12:42:47;;;;;;;0.10;0.10;;;20.40;99.90;;;;;;5064166;23;20473;-74
2023/04/20 12:45:13;;;;;;;0.10;0.10;;;20.10;99.90;;;;;;5028411;28;20557;-75
2023/04/20 12:47:38;;;;;;;0.10;0.10;;;19.80;99.90;;;;;;5004320;28;20030;-75
2023/04/20 12:50:06;;;;;;;0.10;0.10;;;19.70;99.90;;;;;;5024112;28;20075;-75